CFG7VJ LIPZ-EDDF
Flight info
| Callsign | CFG7VJ |
|---|---|
| Flight time | N/A |
| Altitude | 30000 |
| Route | ROKIB DCT NAXAV DCT UNIMI L12 MOGTI Q163 HAFUN/N0391F240 Q163 ETASA T163 SPESA SPESA5B |
| Aircraft | A320/M-SDE3FGHIRWY/LB1 |
Departure
| Time | 2026-05-07 12:11 |
|---|---|
| Airport | Venice Marco Polo Airport (LIPZ) |
Arrival
| Time | N/A |
|---|---|
| Airport | Frankfurt Main Airport (EDDF) |
| Time | Latitude | Longitude | Altitude | Speed | Heading |
|---|---|---|---|---|---|
| 2026-05-07 11:38 | 45.50777 | 12.34361 | 9 ft | 0 kts | 222° |
| 2026-05-07 11:59 | 45.50784 | 12.34370 | 9 ft | 2 kts | 222° |
| 2026-05-07 11:59 | 45.50791 | 12.34380 | 9 ft | 1 kts | 222° |
| 2026-05-07 12:00 | 45.50803 | 12.34393 | 8 ft | 2 kts | 204° |
| 2026-05-07 12:00 | 45.50817 | 12.34400 | 8 ft | 2 kts | 190° |
| 2026-05-07 12:00 | 45.50832 | 12.34401 | 8 ft | 2 kts | 174° |
| 2026-05-07 12:00 | 45.50847 | 12.34397 | 8 ft | 2 kts | 158° |
| 2026-05-07 12:01 | 45.50860 | 12.34386 | 8 ft | 2 kts | 142° |
| 2026-05-07 12:01 | 45.50867 | 12.34379 | 8 ft | 1 kts | 133° |
| 2026-05-07 12:01 | 45.50870 | 12.34372 | 8 ft | 0 kts | 132° |
| 2026-05-07 12:05 | 45.50864 | 12.34382 | 8 ft | 2 kts | 132° |
| 2026-05-07 12:05 | 45.50843 | 12.34415 | 7 ft | 6 kts | 133° |
| 2026-05-07 12:05 | 45.50802 | 12.34478 | 7 ft | 11 kts | 132° |
| 2026-05-07 12:06 | 45.50742 | 12.34571 | 7 ft | 13 kts | 133° |
| 2026-05-07 12:06 | 45.50672 | 12.34680 | 9 ft | 14 kts | 133° |
| 2026-05-07 12:06 | 45.50617 | 12.34741 | 9 ft | 10 kts | 169° |
| 2026-05-07 12:06 | 45.50550 | 12.34685 | 9 ft | 12 kts | 222° |
| 2026-05-07 12:07 | 45.50479 | 12.34594 | 9 ft | 14 kts | 220° |
| 2026-05-07 12:07 | 45.50398 | 12.34492 | 9 ft | 16 kts | 222° |
| 2026-05-07 12:07 | 45.50302 | 12.34369 | 9 ft | 20 kts | 221° |
| 2026-05-07 12:07 | 45.50185 | 12.34220 | 9 ft | 24 kts | 223° |
| 2026-05-07 12:08 | 45.50047 | 12.34040 | 9 ft | 29 kts | 221° |
| 2026-05-07 12:08 | 45.49887 | 12.33836 | 9 ft | 31 kts | 223° |
| 2026-05-07 12:08 | 45.49750 | 12.33665 | 9 ft | 22 kts | 212° |
| 2026-05-07 12:08 | 45.49632 | 12.33546 | 9 ft | 17 kts | 223° |
| 2026-05-07 12:09 | 45.49534 | 12.33566 | 8 ft | 16 kts | 132° |
| 2026-05-07 12:09 | 45.49455 | 12.33689 | 9 ft | 17 kts | 132° |
| 2026-05-07 12:09 | 45.49437 | 12.33800 | 9 ft | 6 kts | 46° |
| 2026-05-07 12:09 | 45.49459 | 12.33831 | 9 ft | 3 kts | 43° |
| 2026-05-07 12:10 | 45.49462 | 12.33835 | 9 ft | 0 kts | 43° |
| 2026-05-07 12:10 | 45.49463 | 12.33836 | 9 ft | 0 kts | 43° |
| 2026-05-07 12:10 | 45.49468 | 12.33843 | 9 ft | 1 kts | 43° |
| 2026-05-07 12:10 | 45.49501 | 12.33887 | 9 ft | 28 kts | 42° |
| 2026-05-07 12:11 | 45.49881 | 12.34372 | 9 ft | 115 kts | 42° |
| 2026-05-07 12:11 | 45.50652 | 12.35366 | 71 ft | 177 kts | 41° |
| 2026-05-07 12:11 | 45.51592 | 12.36499 | 853 ft | 181 kts | 41° |
| 2026-05-07 12:11 | 45.52477 | 12.37705 | 1870 ft | 176 kts | 46° |
| 2026-05-07 12:12 | 45.53307 | 12.38979 | 2460 ft | 184 kts | 53° |
| 2026-05-07 12:12 | 45.53780 | 12.40704 | 2826 ft | 200 kts | 89° |
| 2026-05-07 12:12 | 45.53567 | 12.42720 | 3282 ft | 214 kts | 100° |
| 2026-05-07 12:12 | 45.53302 | 12.44823 | 4024 ft | 216 kts | 100° |
| 2026-05-07 12:13 | 45.53048 | 12.46921 | 4802 ft | 217 kts | 99° |
| 2026-05-07 12:13 | 45.52811 | 12.49031 | 5531 ft | 220 kts | 99° |
| 2026-05-07 12:13 | 45.52467 | 12.51160 | 6238 ft | 223 kts | 118° |
| 2026-05-07 12:13 | 45.51440 | 12.52724 | 6919 ft | 222 kts | 154° |
| 2026-05-07 12:14 | 45.49973 | 12.53210 | 7613 ft | 220 kts | 187° |
| 2026-05-07 12:14 | 45.48535 | 12.52627 | 8326 ft | 219 kts | 203° |
| 2026-05-07 12:14 | 45.47199 | 12.51624 | 9029 ft | 219 kts | 224° |
| 2026-05-07 12:14 | 45.46387 | 12.49847 | 9746 ft | 219 kts | 254° |
| 2026-05-07 12:15 | 45.46318 | 12.47714 | 10468 ft | 221 kts | 281° |
| 2026-05-07 12:15 | 45.46770 | 12.45624 | 11162 ft | 223 kts | 285° |
| 2026-05-07 12:15 | 45.47248 | 12.43536 | 11826 ft | 226 kts | 285° |
| 2026-05-07 12:15 | 45.47728 | 12.41401 | 12492 ft | 228 kts | 284° |
| 2026-05-07 12:16 | 45.48208 | 12.39230 | 13023 ft | 236 kts | 284° |
| 2026-05-07 12:16 | 45.48708 | 12.36943 | 13353 ft | 253 kts | 284° |
| 2026-05-07 12:16 | 45.49246 | 12.34473 | 13672 ft | 270 kts | 284° |
| 2026-05-07 12:16 | 45.49820 | 12.31835 | 13989 ft | 287 kts | 284° |
| 2026-05-07 12:17 | 45.50426 | 12.29049 | 14291 ft | 303 kts | 284° |
| 2026-05-07 12:17 | 45.51059 | 12.26133 | 14581 ft | 319 kts | 284° |
| 2026-05-07 12:17 | 45.51730 | 12.23040 | 14962 ft | 330 kts | 284° |
| 2026-05-07 12:17 | 45.52405 | 12.19935 | 15574 ft | 334 kts | 285° |
| 2026-05-07 12:18 | 45.53095 | 12.16784 | 16248 ft | 335 kts | 285° |
| 2026-05-07 12:18 | 45.53793 | 12.13602 | 16875 ft | 338 kts | 284° |
| 2026-05-07 12:18 | 45.54495 | 12.10388 | 17491 ft | 340 kts | 284° |
| 2026-05-07 12:18 | 45.55197 | 12.07169 | 18095 ft | 343 kts | 284° |
| 2026-05-07 12:19 | 45.55897 | 12.03954 | 18671 ft | 345 kts | 284° |
| 2026-05-07 12:19 | 45.56604 | 12.00693 | 19232 ft | 347 kts | 284° |
| 2026-05-07 12:19 | 45.57332 | 11.97413 | 19793 ft | 350 kts | 287° |
| 2026-05-07 12:19 | 45.58561 | 11.94335 | 20296 ft | 361 kts | 307° |
| 2026-05-07 12:20 | 45.60475 | 11.91985 | 20807 ft | 372 kts | 325° |
| 2026-05-07 12:20 | 45.62799 | 11.90317 | 21343 ft | 376 kts | 330° |
| 2026-05-07 12:20 | 45.65157 | 11.88745 | 21827 ft | 379 kts | 330° |
| 2026-05-07 12:20 | 45.67581 | 11.87122 | 22326 ft | 382 kts | 330° |
| 2026-05-07 12:21 | 45.69971 | 11.85500 | 22852 ft | 383 kts | 330° |
| 2026-05-07 12:21 | 45.72380 | 11.83855 | 23384 ft | 385 kts | 330° |
| 2026-05-07 12:21 | 45.74767 | 11.82212 | 23843 ft | 387 kts | 330° |
| 2026-05-07 12:21 | 45.77198 | 11.80534 | 24288 ft | 389 kts | 330° |
| 2026-05-07 12:22 | 45.79645 | 11.78839 | 24732 ft | 392 kts | 330° |
| 2026-05-07 12:22 | 45.82101 | 11.77137 | 25149 ft | 394 kts | 330° |
| 2026-05-07 12:22 | 45.84577 | 11.75423 | 25538 ft | 397 kts | 330° |
| 2026-05-07 12:22 | 45.87076 | 11.73693 | 25915 ft | 399 kts | 330° |
| 2026-05-07 12:23 | 45.89574 | 11.71963 | 26264 ft | 402 kts | 330° |
| 2026-05-07 12:23 | 45.92081 | 11.70231 | 26613 ft | 404 kts | 330° |
| 2026-05-07 12:23 | 45.94640 | 11.68462 | 26942 ft | 407 kts | 330° |
| 2026-05-07 12:23 | 45.97168 | 11.66708 | 27264 ft | 410 kts | 329° |
| 2026-05-07 12:24 | 45.99743 | 11.64920 | 27590 ft | 412 kts | 329° |
| 2026-05-07 12:24 | 46.02322 | 11.63129 | 27884 ft | 415 kts | 329° |
| 2026-05-07 12:24 | 46.04943 | 11.61304 | 28206 ft | 417 kts | 329° |
| 2026-05-07 12:24 | 46.07544 | 11.59493 | 28514 ft | 419 kts | 329° |
| 2026-05-07 12:25 | 46.10182 | 11.57655 | 28807 ft | 421 kts | 329° |
| 2026-05-07 12:25 | 46.12818 | 11.55815 | 29105 ft | 423 kts | 329° |
| 2026-05-07 12:25 | 46.15501 | 11.53938 | 29397 ft | 425 kts | 329° |
| 2026-05-07 12:25 | 46.18148 | 11.52089 | 29650 ft | 427 kts | 329° |
| 2026-05-07 12:26 | 46.20820 | 11.50220 | 29917 ft | 429 kts | 329° |
| 2026-05-07 12:26 | 46.26209 | 11.46438 | 29990 ft | 429 kts | 329° |
| 2026-05-07 12:27 | 46.31566 | 11.42673 | 30010 ft | 429 kts | 329° |
| 2026-05-07 12:27 | 46.36919 | 11.38903 | 30021 ft | 429 kts | 330° |
| 2026-05-07 12:28 | 46.42267 | 11.35127 | 30005 ft | 429 kts | 330° |
| 2026-05-07 12:28 | 46.47647 | 11.31391 | 29993 ft | 429 kts | 331° |
| 2026-05-07 12:29 | 46.53089 | 11.27879 | 29993 ft | 430 kts | 332° |
| 2026-05-07 12:29 | 46.58546 | 11.24376 | 29984 ft | 429 kts | 332° |
| 2026-05-07 12:30 | 46.63983 | 11.20867 | 30016 ft | 429 kts | 332° |
| 2026-05-07 12:30 | 46.69446 | 11.17330 | 30062 ft | 429 kts | 332° |
| 2026-05-07 12:31 | 46.74885 | 11.13796 | 30039 ft | 429 kts | 333° |
| 2026-05-07 12:31 | 46.80306 | 11.10271 | 30006 ft | 429 kts | 333° |
| 2026-05-07 12:32 | 46.85767 | 11.06712 | 30013 ft | 429 kts | 333° |
| 2026-05-07 12:32 | 46.91178 | 11.03104 | 30020 ft | 428 kts | 333° |
| 2026-05-07 12:33 | 46.99280 | 10.97721 | 30048 ft | 428 kts | 334° |
| 2026-05-07 12:33 | 47.04692 | 10.94197 | 30051 ft | 426 kts | 334° |
| 2026-05-07 12:34 | 47.10070 | 10.90685 | 30047 ft | 425 kts | 334° |
| 2026-05-07 12:34 | 47.15493 | 10.87129 | 30056 ft | 426 kts | 334° |
| 2026-05-07 12:35 | 47.20909 | 10.83566 | 30057 ft | 424 kts | 334° |
| 2026-05-07 12:35 | 47.26256 | 10.80041 | 30048 ft | 423 kts | 334° |
| 2026-05-07 12:36 | 47.31623 | 10.76496 | 30054 ft | 423 kts | 334° |
| 2026-05-07 12:36 | 47.36951 | 10.72968 | 30050 ft | 422 kts | 334° |
| 2026-05-07 12:37 | 47.42350 | 10.69641 | 30042 ft | 421 kts | 336° |
| 2026-05-07 12:37 | 47.47788 | 10.66480 | 30039 ft | 420 kts | 337° |
| 2026-05-07 12:38 | 47.53199 | 10.63327 | 30037 ft | 419 kts | 337° |
| 2026-05-07 12:38 | 47.58600 | 10.60168 | 30024 ft | 418 kts | 337° |
| 2026-05-07 12:39 | 47.63995 | 10.57002 | 30029 ft | 418 kts | 337° |
| 2026-05-07 12:39 | 47.69391 | 10.53827 | 30018 ft | 418 kts | 337° |
| 2026-05-07 12:40 | 47.74795 | 10.50640 | 30021 ft | 416 kts | 337° |
| 2026-05-07 12:40 | 47.80143 | 10.47481 | 30033 ft | 416 kts | 337° |
| 2026-05-07 12:41 | 47.85513 | 10.44301 | 30015 ft | 415 kts | 337° |
| 2026-05-07 12:41 | 47.90866 | 10.41122 | 30028 ft | 415 kts | 337° |
| 2026-05-07 12:42 | 47.96203 | 10.37946 | 30033 ft | 414 kts | 337° |
| 2026-05-07 12:42 | 48.01490 | 10.34794 | 30886 ft | 400 kts | 337° |
| 2026-05-07 12:43 | 48.04082 | 10.33245 | 31096 ft | 404 kts | 336° |
| 2026-05-07 12:43 | 48.06735 | 10.31657 | 30824 ft | 414 kts | 337° |
| 2026-05-07 12:43 | 48.09432 | 10.30041 | 30537 ft | 416 kts | 336° |
| 2026-05-07 12:43 | 48.12089 | 10.28449 | 30281 ft | 413 kts | 336° |
| 2026-05-07 12:44 | 48.14746 | 10.26856 | 30746 ft | 408 kts | 336° |
| 2026-05-07 12:44 | 48.17232 | 10.25371 | 32152 ft | 371 kts | 336° |
| 2026-05-07 12:44 | 48.19366 | 10.24116 | 33738 ft | 309 kts | 335° |
| 2026-05-07 12:44 | 48.21164 | 10.23056 | 34800 ft | 267 kts | 334° |
| 2026-05-07 12:45 | 48.22945 | 10.21978 | 34465 ft | 296 kts | 333° |
| 2026-05-07 12:45 | 48.24972 | 10.20637 | 33100 ft | 368 kts | 333° |
| 2026-05-07 12:45 | 48.27375 | 10.18910 | 30720 ft | 436 kts | 332° |
| 2026-05-07 12:45 | 48.30140 | 10.16791 | 27236 ft | 484 kts | 331° |
| 2026-05-07 12:46 | 48.33094 | 10.14417 | 25557 ft | 487 kts | 330° |
| 2026-05-07 12:46 | 48.36048 | 10.12038 | 24824 ft | 469 kts | 330° |
| 2026-05-07 12:46 | 48.38901 | 10.09739 | 23381 ft | 472 kts | 330° |
| 2026-05-07 12:46 | 48.41651 | 10.07423 | 23585 ft | 438 kts | 330° |
| 2026-05-07 12:47 | 48.44231 | 10.05326 | 23856 ft | 410 kts | 330° |
| 2026-05-07 12:47 | 48.46566 | 10.03056 | 23840 ft | 388 kts | 318° |
| 2026-05-07 12:47 | 48.48441 | 10.00294 | 23942 ft | 375 kts | 313° |
| 2026-05-07 12:47 | 48.50228 | 9.97429 | 23976 ft | 373 kts | 313° |
| 2026-05-07 12:48 | 48.52012 | 9.94584 | 23990 ft | 373 kts | 313° |
| 2026-05-07 12:48 | 48.53802 | 9.91778 | 23999 ft | 374 kts | 314° |
| 2026-05-07 12:48 | 48.55638 | 9.88932 | 24191 ft | 380 kts | 314° |
| 2026-05-07 12:48 | 48.57463 | 9.86128 | 24755 ft | 380 kts | 314° |
| 2026-05-07 12:49 | 48.59313 | 9.83298 | 25259 ft | 380 kts | 314° |
| 2026-05-07 12:49 | 48.61169 | 9.80462 | 25692 ft | 383 kts | 314° |
| 2026-05-07 12:49 | 48.63068 | 9.77566 | 26112 ft | 385 kts | 314° |
| 2026-05-07 12:49 | 48.64941 | 9.74708 | 26507 ft | 388 kts | 314° |
| 2026-05-07 12:50 | 48.66837 | 9.71812 | 26912 ft | 390 kts | 314° |
| 2026-05-07 12:50 | 48.68758 | 9.68876 | 27297 ft | 392 kts | 314° |
| 2026-05-07 12:50 | 48.70676 | 9.65942 | 27656 ft | 394 kts | 314° |
| 2026-05-07 12:50 | 48.72589 | 9.63013 | 27963 ft | 397 kts | 314° |
| 2026-05-07 12:51 | 48.74520 | 9.60052 | 27996 ft | 397 kts | 314° |
| 2026-05-07 12:51 | 48.76466 | 9.57066 | 28000 ft | 397 kts | 314° |
| 2026-05-07 12:51 | 48.80333 | 9.51118 | 28006 ft | 397 kts | 314° |
| 2026-05-07 12:52 | 48.84215 | 9.45136 | 28007 ft | 398 kts | 314° |
| 2026-05-07 12:52 | 48.88071 | 9.39179 | 28007 ft | 398 kts | 314° |
| 2026-05-07 12:53 | 48.92276 | 9.33704 | 28010 ft | 399 kts | 324° |
| 2026-05-07 12:53 | 48.97150 | 9.29539 | 28011 ft | 400 kts | 332° |
| 2026-05-07 12:54 | 48.99643 | 9.27648 | 27936 ft | 398 kts | 332° |
| 2026-05-07 12:54 | 49.02141 | 9.25762 | 27238 ft | 400 kts | 332° |
| 2026-05-07 12:54 | 49.04607 | 9.23893 | 26201 ft | 406 kts | 332° |
| 2026-05-07 12:54 | 49.07143 | 9.21966 | 25538 ft | 403 kts | 332° |
| 2026-05-07 12:55 | 49.09622 | 9.20077 | 25019 ft | 396 kts | 332° |
| 2026-05-07 12:55 | 49.12068 | 9.18209 | 24520 ft | 390 kts | 332° |
| 2026-05-07 12:55 | 49.14468 | 9.16373 | 24033 ft | 385 kts | 332° |
| 2026-05-07 12:55 | 49.16853 | 9.14604 | 23543 ft | 380 kts | 336° |
| 2026-05-07 12:56 | 49.19406 | 9.13482 | 23057 ft | 378 kts | 349° |
| 2026-05-07 12:56 | 49.22011 | 9.13231 | 22589 ft | 377 kts | 0° |
| 2026-05-07 12:56 | 49.24603 | 9.13538 | 22134 ft | 373 kts | 3° |
| 2026-05-07 12:56 | 49.27173 | 9.13934 | 21677 ft | 370 kts | 4° |
| 2026-05-07 12:57 | 49.29713 | 9.14325 | 21225 ft | 366 kts | 3° |
| 2026-05-07 12:57 | 49.32230 | 9.14695 | 20783 ft | 363 kts | 3° |
| 2026-05-07 12:57 | 49.34733 | 9.15057 | 20343 ft | 360 kts | 3° |
| 2026-05-07 12:57 | 49.37196 | 9.15411 | 19904 ft | 357 kts | 3° |
| 2026-05-07 12:58 | 49.39655 | 9.15764 | 19465 ft | 354 kts | 3° |
| 2026-05-07 12:58 | 49.42115 | 9.16115 | 19026 ft | 352 kts | 4° |
| 2026-05-07 12:58 | 49.44550 | 9.16464 | 18579 ft | 349 kts | 3° |
| 2026-05-07 12:58 | 49.46931 | 9.16808 | 18152 ft | 347 kts | 3° |
| 2026-05-07 12:59 | 49.49321 | 9.17150 | 17717 ft | 345 kts | 3° |
| 2026-05-07 12:59 | 49.51699 | 9.17492 | 17257 ft | 344 kts | 3° |
| 2026-05-07 12:59 | 49.54097 | 9.17835 | 16808 ft | 343 kts | 4° |
| 2026-05-07 12:59 | 49.56441 | 9.18173 | 16360 ft | 341 kts | 4° |
| 2026-05-07 13:00 | 49.58783 | 9.18512 | 15921 ft | 339 kts | 4° |
| 2026-05-07 13:00 | 49.61139 | 9.18852 | 15477 ft | 337 kts | 4° |
| 2026-05-07 13:00 | 49.63481 | 9.19200 | 15040 ft | 336 kts | 6° |
| 2026-05-07 13:00 | 49.65717 | 9.20150 | 14575 ft | 338 kts | 23° |
| 2026-05-07 13:01 | 49.67650 | 9.22150 | 14126 ft | 340 kts | 41° |
| 2026-05-07 13:01 | 49.69309 | 9.24770 | 13694 ft | 338 kts | 44° |
| 2026-05-07 13:01 | 49.70912 | 9.27421 | 13269 ft | 337 kts | 44° |
| 2026-05-07 13:01 | 49.72672 | 9.29744 | 12811 ft | 332 kts | 29° |
| 2026-05-07 13:02 | 49.74744 | 9.31171 | 12384 ft | 326 kts | 13° |
| 2026-05-07 13:02 | 49.76943 | 9.31947 | 11956 ft | 323 kts | 9° |
| 2026-05-07 13:02 | 49.79147 | 9.32621 | 11530 ft | 321 kts | 9° |
| 2026-05-07 13:02 | 49.81302 | 9.33280 | 11292 ft | 311 kts | 9° |
| 2026-05-07 13:03 | 49.83398 | 9.33768 | 11147 ft | 297 kts | 358° |
| 2026-05-07 13:03 | 49.85341 | 9.33196 | 10996 ft | 284 kts | 339° |
| 2026-05-07 13:03 | 49.87158 | 9.32015 | 10724 ft | 281 kts | 334° |
| 2026-05-07 13:03 | 49.88848 | 9.30517 | 10700 ft | 278 kts | 322° |
| 2026-05-07 13:04 | 49.90311 | 9.28586 | 10641 ft | 281 kts | 320° |
| 2026-05-07 13:04 | 49.91843 | 9.26730 | 10345 ft | 279 kts | 323° |
| 2026-05-07 13:04 | 49.93396 | 9.24982 | 10267 ft | 267 kts | 325° |
| 2026-05-07 13:04 | 49.94935 | 9.23352 | 9768 ft | 272 kts | 326° |
| 2026-05-07 13:05 | 49.96511 | 9.21703 | 9270 ft | 275 kts | 326° |
| 2026-05-07 13:05 | 49.98078 | 9.20057 | 8915 ft | 273 kts | 326° |
| 2026-05-07 13:05 | 49.99633 | 9.18415 | 8567 ft | 270 kts | 325° |
| 2026-05-07 13:05 | 50.01188 | 9.16766 | 8207 ft | 268 kts | 325° |
| 2026-05-07 13:06 | 50.02720 | 9.15136 | 7844 ft | 267 kts | 325° |
| 2026-05-07 13:06 | 50.04234 | 9.13522 | 7560 ft | 262 kts | 325° |
| 2026-05-07 13:06 | 50.05741 | 9.11913 | 7151 ft | 262 kts | 326° |
| 2026-05-07 13:06 | 50.07249 | 9.10302 | 6806 ft | 259 kts | 326° |
| 2026-05-07 13:07 | 50.08697 | 9.08754 | 6652 ft | 250 kts | 326° |
| 2026-05-07 13:07 | 50.10032 | 9.07326 | 6392 ft | 246 kts | 326° |
| 2026-05-07 13:07 | 50.11505 | 9.05749 | 6118 ft | 242 kts | 326° |
| 2026-05-07 13:07 | 50.12838 | 9.04166 | 5836 ft | 239 kts | 313° |
| 2026-05-07 13:08 | 50.13615 | 9.01927 | 5553 ft | 239 kts | 285° |
| 2026-05-07 13:08 | 50.13638 | 8.99363 | 5287 ft | 240 kts | 258° |
| 2026-05-07 13:08 | 50.13097 | 8.96912 | 5079 ft | 236 kts | 252° |
| 2026-05-07 13:08 | 50.12538 | 8.94632 | 4844 ft | 234 kts | 252° |
| 2026-05-07 13:09 | 50.12062 | 8.92672 | 4667 ft | 230 kts | 252° |